Time;durP1;ratioP1;P1;durP2;ratioP2;P2;SDS_P1;SDS_P2;PMS_P1;PMS_P2;Temp;Humidity;BMP_temperature;BMP_pressure;BME280_temperature;BME280_humidity;BME280_pressure;Samples;Min_cycle;Max_cycle;Signal;HPM_P1;HPM_P2
2023/01/06 00:01:31;;;;;;;24.27;12.02;;;;;;;;;;5070237;28;20025;-60
2023/01/06 00:03:58;;;;;;;23.65;11.70;;;;;;;;;;5072724;28;20039;-60
2023/01/06 00:06:27;;;;;;;22.63;12.50;;;;;;;;;;5058521;28;20051;-61
2023/01/06 00:09:01;;;;;;;24.23;11.35;;;;;;;;;;5066247;28;20033;-60
2023/01/06 00:11:27;;;;;;;22.02;11.73;;;;;;;;;;5052485;28;20077;-60
2023/01/06 00:13:54;;;;;;;22.40;10.95;;;;;;;;;;5061614;28;20115;-60
2023/01/06 00:16:21;;;;;;;10.43;6.03;;;;;;;;;;5067461;28;20059;-61
2023/01/06 00:18:46;;;;;;;20.10;9.55;;;;;;;;;;5071590;28;20039;-59
2023/01/06 00:21:13;;;;;;;14.68;8.02;;;;;;;;;;5070578;28;20025;-59
2023/01/06 00:23:39;;;;;;;18.27;8.52;;;;;;;;;;5064103;28;20052;-60
2023/01/06 00:26:06;;;;;;;12.60;6.10;;;;;;;;;;5064568;28;20029;-59
2023/01/06 00:28:32;;;;;;;12.25;6.38;;;;;;;;;;5071510;28;20526;-60
2023/01/06 00:30:58;;;;;;;9.13;4.82;;;;;;;;;;5070921;28;20068;-60
2023/01/06 00:33:24;;;;;;;13.15;5.60;;;;;;;;;;5057198;28;20120;-61
2023/01/06 00:35:49;;;;;;;7.78;3.90;;;;;;;;;;5092414;28;20483;-60
2023/01/06 00:38:15;;;;;;;8.25;4.55;;;;;;;;;;5071652;28;20060;-60
2023/01/06 00:40:40;;;;;;;9.85;4.13;;;;;;;;;;5077343;28;20032;-60
2023/01/06 00:43:06;;;;;;;8.63;4.22;;;;;;;;;;5069889;28;20474;-60
2023/01/06 00:45:31;;;;;;;8.57;4.03;;;;;;;;;;5073546;28;20028;-60
2023/01/06 00:47:56;;;;;;;10.07;4.03;;;;;;;;;;5077589;28;20025;-60
2023/01/06 00:50:22;;;;;;;10.07;3.85;;;;;;;;;;5069224;28;20029;-60
2023/01/06 00:52:48;;;;;;;9.25;3.90;;;;;;;;;;5062943;28;20374;-60
2023/01/06 00:55:14;;;;;;;8.60;3.80;;;;;;;;;;5065033;28;20037;-60
2023/01/06 00:57:39;;;;;;;7.03;3.22;;;;;;;;;;5060942;28;20031;-61
2023/01/06 01:00:07;;;;;;;8.90;3.53;;;;;;;;;;5071026;28;20032;-60
2023/01/06 01:02:32;;;;;;;8.38;3.40;;;;;;;;;;5070282;28;20048;-60
2023/01/06 01:04:58;;;;;;;11.13;3.65;;;;;;;;;;5071526;28;20119;-60
2023/01/06 01:07:23;;;;;;;7.28;3.55;;;;;;;;;;5068686;28;20366;-61
2023/01/06 01:09:49;;;;;;;6.30;2.83;;;;;;;;;;5056512;28;20048;-60
2023/01/06 01:12:15;;;;;;;6.40;2.70;;;;;;;;;;5071106;28;20373;-62
2023/01/06 01:14:45;;;;;;;5.97;3.17;;;;;;;;;;5065824;28;20381;-60
2023/01/06 01:17:14;;;;;;;6.88;3.22;;;;;;;;;;5065895;28;20098;-60
2023/01/06 01:19:40;;;;;;;6.57;2.83;;;;;;;;;;5077983;28;20389;-61
2023/01/06 01:22:06;;;;;;;6.45;2.83;;;;;;;;;;5080643;28;20039;-61
2023/01/06 01:24:33;;;;;;;6.43;2.67;;;;;;;;;;5069753;28;20139;-60
2023/01/06 01:26:59;;;;;;;6.80;2.40;;;;;;;;;;5069499;28;20485;-60
2023/01/06 01:29:25;;;;;;;5.95;2.42;;;;;;;;;;5069499;28;20028;-62
2023/01/06 01:31:50;;;;;;;5.32;2.22;;;;;;;;;;5069607;28;20029;-62
2023/01/06 01:34:17;;;;;;;5.75;2.25;;;;;;;;;;5069603;28;20024;-61
2023/01/06 01:36:45;;;;;;;6.60;2.42;;;;;;;;;;5074405;28;20063;-62
2023/01/06 01:39:12;;;;;;;5.13;2.33;;;;;;;;;;5084428;28;20056;-61
2023/01/06 01:41:38;;;;;;;4.85;2.10;;;;;;;;;;5071422;28;20049;-59
2023/01/06 01:44:41;;;;;;;6.15;2.15;;;;;;;;;;5068365;28;20029;-61
2023/01/06 01:47:08;;;;;;;5.07;1.90;;;;;;;;;;5065508;28;20032;-59
2023/01/06 01:49:37;;;;;;;4.07;1.98;;;;;;;;;;5080708;28;20029;-60
2023/01/06 01:52:03;;;;;;;3.35;1.80;;;;;;;;;;5068355;28;20029;-59
2023/01/06 01:54:31;;;;;;;4.80;1.95;;;;;;;;;;5069914;28;20044;-60
2023/01/06 01:57:03;;;;;;;4.00;1.75;;;;;;;;;;5068589;28;20033;-60
2023/01/06 01:59:32;;;;;;;3.63;1.48;;;;;;;;;;5049780;28;20045;-61
2023/01/06 02:01:57;;;;;;;7.05;1.92;;;;;;;;;;5042868;28;20098;-59
2023/01/06 02:04:24;;;;;;;4.18;1.70;;;;;;;;;;5048061;28;20440;-59
2023/01/06 02:06:50;;;;;;;3.58;1.70;;;;;;;;;;5049667;28;20156;-59
2023/01/06 02:09:31;;;;;;;6.22;1.60;;;;;;;;;;5052228;28;20032;-59
2023/01/06 02:11:57;;;;;;;4.07;1.40;;;;;;;;;;5055503;28;20048;-58
2023/01/06 02:14:25;;;;;;;4.40;1.52;;;;;;;;;;5044968;28;20094;-59
2023/01/06 02:17:16;;;;;;;4.47;1.73;;;;;;;;;;5055764;28;20033;-59
2023/01/06 02:19:54;;;;;;;4.13;1.80;;;;;;;;;;5048595;28;20110;-58
2023/01/06 02:22:57;;;;;;;3.55;1.58;;;;;;;;;;5047284;28;20033;-58
2023/01/06 02:25:48;;;;;;;5.65;1.60;;;;;;;;;;5033043;28;20501;-57
2023/01/06 02:28:46;;;;;;;3.05;1.55;;;;;;;;;;5047683;28;20037;-60
2023/01/06 02:31:15;;;;;;;7.30;1.40;;;;;;;;;;5023955;28;20045;-59
2023/01/06 02:33:55;;;;;;;3.03;1.50;;;;;;;;;;5051267;28;20036;-59
2023/01/06 02:36:45;;;;;;;4.07;1.80;;;;;;;;;;5049613;28;20386;-59
2023/01/06 02:39:23;;;;;;;3.10;1.55;;;;;;;;;;5054655;28;20439;-57
2023/01/06 02:42:01;;;;;;;4.93;1.50;;;;;;;;;;5031274;28;20029;-57
2023/01/06 02:44:32;;;;;;;4.38;1.50;;;;;;;;;;5032729;28;20052;-60
2023/01/06 02:47:10;;;;;;;;;;;;;;;;;;5060131;28;20120;-58
2023/01/06 02:49:55;;;;;;;4.07;1.50;;;;;;;;;;5052473;28;19916;-58
2023/01/06 02:52:42;;;;;;;3.22;1.30;;;;;;;;;;5042433;28;20033;-59
2023/01/06 02:55:17;;;;;;;5.50;1.50;;;;;;;;;;5052391;28;20060;-59
2023/01/06 02:58:03;;;;;;;4.63;1.60;;;;;;;;;;5055947;28;20449;-58
2023/01/06 03:00:51;;;;;;;5.97;1.50;;;;;;;;;;5072959;28;20107;-60
2023/01/06 03:03:21;;;;;;;7.82;1.52;;;;;;;;;;5075566;28;20040;-59
2023/01/06 03:05:51;;;;;;;1.70;1.30;;;;;;;;;;5092569;28;20070;-58
2023/01/06 03:08:29;;;;;;;3.47;1.60;;;;;;;;;;5077742;28;20037;-59
2023/01/06 03:10:56;;;;;;;3.75;1.33;;;;;;;;;;5072162;28;20051;-58
2023/01/06 03:13:37;;;;;;;5.03;1.83;;;;;;;;;;5073401;28;20040;-58
2023/01/06 03:16:03;;;;;;;;;;;;;;;;;;5073219;28;20527;-58
2023/01/06 03:18:29;;;;;;;6.70;1.85;;;;;;;;;;5072826;28;19912;-59
2023/01/06 03:20:58;;;;;;;4.55;1.80;;;;;;;;;;5072264;28;20465;-58
2023/01/06 03:23:24;;;;;;;3.58;1.70;;;;;;;;;;5071430;28;20087;-60
2023/01/06 03:25:50;;;;;;;2.25;1.60;;;;;;;;;;5073020;28;20790;-58
2023/01/06 03:28:15;;;;;;;4.05;1.90;;;;;;;;;;5085450;28;20066;-59
2023/01/06 03:30:59;;;;;;;6.18;1.80;;;;;;;;;;5072026;28;20526;-58
2023/01/06 03:33:35;;;;;;;6.22;2.40;;;;;;;;;;5062730;28;20044;-59
2023/01/06 03:36:21;;;;;;;3.70;1.70;;;;;;;;;;5057927;28;20033;-58
2023/01/06 03:39:02;;;;;;;3.20;2.00;;;;;;;;;;5064989;28;20028;-57
2023/01/06 03:44:45;;;;;;;6.05;1.80;;;;;;;;;;5057596;28;20080;-59
2023/01/06 03:47:41;;;;;;;4.63;1.73;;;;;;;;;;5056336;28;21001;-59
2023/01/06 03:50:19;;;;;;;6.28;1.73;;;;;;;;;;5071716;28;20579;-58
2023/01/06 03:52:55;;;;;;;4.22;1.85;;;;;;;;;;5072958;28;20039;-58
2023/01/06 03:55:24;;;;;;;8.23;1.90;;;;;;;;;;5066430;28;20476;-58
2023/01/06 03:57:54;;;;;;;7.10;2.15;;;;;;;;;;5092578;28;20130;-59
2023/01/06 04:00:23;;;;;;;11.25;2.13;;;;;;;;;;5080363;28;20025;-60
2023/01/06 04:02:49;;;;;;;2.88;1.63;;;;;;;;;;5077625;28;20038;-57
2023/01/06 04:05:20;;;;;;;3.42;1.60;;;;;;;;;;5093648;28;20372;-58
2023/01/06 04:07:47;;;;;;;3.03;1.60;;;;;;;;;;5072697;28;20033;-57
2023/01/06 04:10:14;;;;;;;6.53;1.63;;;;;;;;;;5072107;28;20060;-59
2023/01/06 04:12:39;;;;;;;4.97;1.75;;;;;;;;;;5070529;28;20545;-58
2023/01/06 04:15:17;;;;;;;3.55;1.75;;;;;;;;;;5072160;28;20052;-59
2023/01/06 04:17:44;;;;;;;5.90;1.75;;;;;;;;;;5070325;28;20028;-58
2023/01/06 04:20:15;;;;;;;4.22;1.50;;;;;;;;;;5071983;28;20450;-59
2023/01/06 04:22:41;;;;;;;3.67;1.55;;;;;;;;;;5068719;28;20060;-58
2023/01/06 04:25:07;;;;;;;4.65;1.70;;;;;;;;;;5067505;28;20519;-59
2023/01/06 04:27:32;;;;;;;4.40;1.63;;;;;;;;;;5069615;28;20036;-60
2023/01/06 04:29:58;;;;;;;4.45;1.50;;;;;;;;;;5071869;28;20117;-59
2023/01/06 04:32:23;;;;;;;3.33;1.35;;;;;;;;;;5069601;28;20048;-58
2023/01/06 04:34:49;;;;;;;3.85;1.50;;;;;;;;;;5071182;28;20058;-56
2023/01/06 04:37:15;;;;;;;7.15;1.52;;;;;;;;;;5069752;28;20033;-57
2023/01/06 04:39:40;;;;;;;3.05;1.30;;;;;;;;;;5070471;28;20086;-58
2023/01/06 04:42:05;;;;;;;4.43;1.45;;;;;;;;;;5066108;28;20067;-58
2023/01/06 04:44:31;;;;;;;4.40;1.52;;;;;;;;;;5070392;28;20115;-58
2023/01/06 04:46:56;;;;;;;6.38;1.27;;;;;;;;;;5067752;28;20059;-59
2023/01/06 04:49:22;;;;;;;1.77;0.90;;;;;;;;;;5072186;28;20024;-57
2023/01/06 04:51:47;;;;;;;4.45;1.40;;;;;;;;;;5061267;28;20087;-55
2023/01/06 04:54:12;;;;;;;4.82;1.63;;;;;;;;;;5068147;28;20476;-60
2023/01/06 04:56:38;;;;;;;3.40;1.00;;;;;;;;;;5063875;28;20036;-60
2023/01/06 04:59:03;;;;;;;3.78;1.27;;;;;;;;;;5057287;28;20052;-58
2023/01/06 05:01:29;;;;;;;5.20;1.45;;;;;;;;;;5061757;28;20039;-61
2023/01/06 05:03:54;;;;;;;2.70;1.20;;;;;;;;;;5069510;28;20028;-60
2023/01/06 05:06:20;;;;;;;5.40;1.30;;;;;;;;;;5069571;28;20147;-57
2023/01/06 05:08:46;;;;;;;3.97;1.25;;;;;;;;;;5070602;28;20037;-58
2023/01/06 05:11:14;;;;;;;3.70;1.73;;;;;;;;;;5061701;28;20469;-56
2023/01/06 05:13:39;;;;;;;2.40;1.23;;;;;;;;;;5070389;28;20029;-61
2023/01/06 05:16:07;;;;;;;5.05;1.10;;;;;;;;;;5073483;28;20024;-58
2023/01/06 05:18:32;;;;;;;3.80;1.48;;;;;;;;;;5069568;28;20475;-56
2023/01/06 05:20:58;;;;;;;2.08;1.23;;;;;;;;;;5070326;28;20099;-57
2023/01/06 05:23:23;;;;;;;3.38;1.23;;;;;;;;;;5070047;28;20024;-57
2023/01/06 05:25:52;;;;;;;3.88;1.30;;;;;;;;;;5070213;28;20025;-57
2023/01/06 05:28:18;;;;;;;3.92;1.25;;;;;;;;;;5074790;28;20116;-58
2023/01/06 05:30:43;;;;;;;3.47;1.33;;;;;;;;;;5058942;28;20111;-58
2023/01/06 05:33:09;;;;;;;3.78;1.10;;;;;;;;;;5067701;28;20024;-57
2023/01/06 05:35:34;;;;;;;2.88;1.27;;;;;;;;;;5070166;28;20035;-55
2023/01/06 05:38:00;;;;;;;3.17;1.30;;;;;;;;;;5070400;28;20031;-55
2023/01/06 05:40:25;;;;;;;3.67;1.10;;;;;;;;;;5071238;28;20036;-56
2023/01/06 05:42:54;;;;;;;7.30;2.78;;;;;;;;;;5073716;28;20451;-57
2023/01/06 05:45:21;;;;;;;6.60;2.58;;;;;;;;;;5072159;28;20033;-57
2023/01/06 05:47:46;;;;;;;6.15;2.83;;;;;;;;;;5069137;28;20400;-55
2023/01/06 05:50:12;;;;;;;4.50;2.10;;;;;;;;;;5067051;28;20455;-57
2023/01/06 05:52:37;;;;;;;4.45;2.20;;;;;;;;;;5071979;28;20024;-58
2023/01/06 05:55:03;;;;;;;4.85;2.15;;;;;;;;;;5077096;28;20470;-60
2023/01/06 05:57:32;;;;;;;4.63;2.13;;;;;;;;;;5066929;28;20449;-57
2023/01/06 05:59:57;;;;;;;3.25;1.20;;;;;;;;;;5058560;28;20044;-57
2023/01/06 06:02:22;;;;;;;3.97;1.75;;;;;;;;;;5070060;28;20032;-59
2023/01/06 06:04:48;;;;;;;2.97;1.70;;;;;;;;;;5087382;28;20040;-58
2023/01/06 06:07:13;;;;;;;1.20;0.90;;;;;;;;;;5086826;28;20028;-58
2023/01/06 06:09:39;;;;;;;2.08;1.38;;;;;;;;;;5090353;28;20024;-58
2023/01/06 06:12:05;;;;;;;1.65;0.98;;;;;;;;;;5088658;28;20526;-58
2023/01/06 06:14:31;;;;;;;1.63;1.00;;;;;;;;;;5091637;28;20024;-57
2023/01/06 06:16:56;;;;;;;2.70;1.50;;;;;;;;;;5088564;28;20457;-58
2023/01/06 06:19:22;;;;;;;3.25;1.05;;;;;;;;;;5058595;28;20033;-57
2023/01/06 06:21:47;;;;;;;3.03;1.40;;;;;;;;;;5071960;28;20042;-61
2023/01/06 06:24:13;;;;;;;1.13;0.82;;;;;;;;;;5075770;28;20082;-62
2023/01/06 06:26:38;;;;;;;2.35;1.35;;;;;;;;;;5080694;28;20068;-60
2023/01/06 06:29:05;;;;;;;2.35;1.35;;;;;;;;;;5081667;28;20481;-59
2023/01/06 06:31:30;;;;;;;2.40;1.30;;;;;;;;;;5075274;28;20029;-60
2023/01/06 06:33:58;;;;;;;2.53;1.48;;;;;;;;;;5078711;28;20024;-60
2023/01/06 06:36:24;;;;;;;2.65;1.20;;;;;;;;;;5077286;28;20106;-60
2023/01/06 06:38:51;;;;;;;3.30;1.15;;;;;;;;;;5066436;28;20482;-58
2023/01/06 06:41:17;;;;;;;1.88;1.08;;;;;;;;;;5085603;28;20032;-60
2023/01/06 06:43:43;;;;;;;3.03;1.35;;;;;;;;;;5073268;28;20056;-58
2023/01/06 06:46:09;;;;;;;2.90;1.33;;;;;;;;;;5070791;28;20067;-60
2023/01/06 06:48:35;;;;;;;2.15;1.20;;;;;;;;;;5072941;28;20075;-60
2023/01/06 06:51:02;;;;;;;3.58;1.33;;;;;;;;;;5092791;28;20881;-59
2023/01/06 06:53:28;;;;;;;3.50;1.70;;;;;;;;;;5081140;28;20063;-59
2023/01/06 06:55:54;;;;;;;3.47;1.70;;;;;;;;;;5072947;28;20059;-60
2023/01/06 06:58:20;;;;;;;4.80;1.90;;;;;;;;;;5074419;28;20063;-61
2023/01/06 07:00:45;;;;;;;6.18;1.77;;;;;;;;;;5063224;28;20028;-61
2023/01/06 07:03:11;;;;;;;4.50;2.30;;;;;;;;;;5089461;28;20028;-57
2023/01/06 07:05:36;;;;;;;3.17;1.60;;;;;;;;;;5091432;28;20038;-59
2023/01/06 07:08:02;;;;;;;6.95;2.38;;;;;;;;;;5070477;28;20036;-60
2023/01/06 07:10:27;;;;;;;2.38;1.45;;;;;;;;;;5091637;28;20052;-61
2023/01/06 07:12:53;;;;;;;4.25;1.55;;;;;;;;;;5077644;28;20032;-58
2023/01/06 07:15:18;;;;;;;4.25;1.70;;;;;;;;;;5092086;28;20464;-59
2023/01/06 07:17:43;;;;;;;1.73;1.25;;;;;;;;;;5082451;28;20033;-61
2023/01/06 07:20:09;;;;;;;2.75;1.60;;;;;;;;;;5072836;28;20433;-60
2023/01/06 07:22:38;;;;;;;7.13;1.00;;;;;;;;;;5078149;28;20109;-60
2023/01/06 07:25:05;;;;;;;4.75;1.25;;;;;;;;;;5073578;28;20679;-60
2023/01/06 07:27:31;;;;;;;3.28;1.27;;;;;;;;;;5074961;28;20033;-60
2023/01/06 07:29:56;;;;;;;2.22;1.30;;;;;;;;;;5092837;28;20376;-60
2023/01/06 07:32:22;;;;;;;1.75;1.40;;;;;;;;;;5088283;28;20032;-60
2023/01/06 07:34:47;;;;;;;4.75;1.10;;;;;;;;;;5092946;28;20089;-60
2023/01/06 07:37:12;;;;;;;3.20;1.02;;;;;;;;;;5085840;28;20021;-57
2023/01/06 07:39:38;;;;;;;2.67;1.30;;;;;;;;;;5072599;28;20048;-61
2023/01/06 07:42:03;;;;;;;4.13;1.50;;;;;;;;;;5072146;28;20032;-58
2023/01/06 07:44:28;;;;;;;3.63;1.10;;;;;;;;;;5088420;28;20475;-60
2023/01/06 07:46:54;;;;;;;2.20;1.08;;;;;;;;;;5054499;28;20071;-58
2023/01/06 07:49:19;;;;;;;3.50;1.10;;;;;;;;;;5067819;28;20028;-56
2023/01/06 07:51:44;;;;;;;3.45;1.00;;;;;;;;;;5088823;28;20477;-63
2023/01/06 07:54:10;;;;;;;1.55;1.20;;;;;;;;;;5093382;28;20099;-60
2023/01/06 07:56:35;;;;;;;2.20;1.00;;;;;;;;;;5083896;28;20028;-60
2023/01/06 07:59:01;;;;;;;2.13;1.10;;;;;;;;;;5074172;28;20080;-60
2023/01/06 08:01:26;;;;;;;5.07;1.55;;;;;;;;;;5072525;28;20024;-60
2023/01/06 08:03:51;;;;;;;4.95;1.40;;;;;;;;;;5071790;28;20457;-60
2023/01/06 08:06:17;;;;;;;1.23;0.98;;;;;;;;;;5069544;28;20028;-60
2023/01/06 08:08:42;;;;;;;2.50;1.20;;;;;;;;;;5071133;28;20457;-60
2023/01/06 08:11:10;;;;;;;0.98;0.80;;;;;;;;;;5070765;28;20036;-60
2023/01/06 08:13:36;;;;;;;1.00;0.90;;;;;;;;;;5072268;28;20040;-60
2023/01/06 08:16:09;;;;;;;6.32;1.63;;;;;;;;;;5068938;28;20041;-60
2023/01/06 08:18:35;;;;;;;4.28;1.50;;;;;;;;;;5072150;28;20056;-60
2023/01/06 08:21:06;;;;;;;1.20;1.10;;;;;;;;;;5053919;28;20037;-60
2023/01/06 08:23:32;;;;;;;2.30;1.20;;;;;;;;;;5072272;28;20029;-57
2023/01/06 08:26:12;;;;;;;2.60;1.27;;;;;;;;;;5071723;28;20059;-56
2023/01/06 08:28:38;;;;;;;1.23;1.02;;;;;;;;;;5059118;28;20410;-60
2023/01/06 08:31:07;;;;;;;3.58;1.10;;;;;;;;;;5070260;28;20047;-60
2023/01/06 08:33:33;;;;;;;2.75;1.00;;;;;;;;;;5070947;28;20490;-60
2023/01/06 08:36:00;;;;;;;2.78;1.60;;;;;;;;;;5067891;28;20063;-60
2023/01/06 08:38:26;;;;;;;1.75;1.20;;;;;;;;;;5069278;28;20033;-60
2023/01/06 08:40:53;;;;;;;1.73;1.15;;;;;;;;;;5070791;28;20127;-60
2023/01/06 08:43:18;;;;;;;4.90;1.10;;;;;;;;;;5072678;28;20067;-60
2023/01/06 08:45:43;;;;;;;1.23;1.02;;;;;;;;;;5071450;28;20040;-57
2023/01/06 08:48:09;;;;;;;4.07;1.38;;;;;;;;;;5076220;28;20859;-60
2023/01/06 08:50:37;;;;;;;2.35;1.25;;;;;;;;;;5071684;28;20029;-59
2023/01/06 08:53:02;;;;;;;2.85;1.52;;;;;;;;;;5088264;28;20035;-62
2023/01/06 08:55:27;;;;;;;3.17;1.50;;;;;;;;;;5072053;28;20024;-60
2023/01/06 08:57:53;;;;;;;2.03;1.42;;;;;;;;;;5069302;28;20047;-60
2023/01/06 09:00:18;;;;;;;1.67;1.15;;;;;;;;;;5072139;28;20033;-57
2023/01/06 09:02:44;;;;;;;2.50;1.30;;;;;;;;;;5087144;28;20040;-60
2023/01/06 09:05:09;;;;;;;2.22;1.60;;;;;;;;;;5085407;28;20032;-58
2023/01/06 09:07:35;;;;;;;2.05;1.40;;;;;;;;;;5069335;28;20109;-60
2023/01/06 09:10:00;;;;;;;3.30;1.60;;;;;;;;;;5066953;28;20476;-60
2023/01/06 09:12:25;;;;;;;2.15;1.60;;;;;;;;;;5071925;28;20032;-60
2023/01/06 09:14:51;;;;;;;4.07;1.85;;;;;;;;;;5069622;28;20110;-63
2023/01/06 09:17:17;;;;;;;2.85;1.50;;;;;;;;;;5071789;28;20050;-60
2023/01/06 09:19:42;;;;;;;2.92;1.60;;;;;;;;;;5073222;28;20032;-60
2023/01/06 09:22:08;;;;;;;2.78;1.90;;;;;;;;;;5066017;28;20024;-60
2023/01/06 09:24:33;;;;;;;2.45;1.73;;;;;;;;;;5070443;28;20039;-59
2023/01/06 09:26:58;;;;;;;3.63;1.80;;;;;;;;;;5091343;28;20035;-60
2023/01/06 09:29:24;;;;;;;3.38;1.50;;;;;;;;;;5076418;28;20107;-60
2023/01/06 09:31:49;;;;;;;3.42;1.80;;;;;;;;;;5070899;28;20058;-63
2023/01/06 09:34:14;;;;;;;2.92;1.85;;;;;;;;;;5074333;28;20028;-61
2023/01/06 09:36:40;;;;;;;5.05;2.75;;;;;;;;;;5071736;28;20032;-60
2023/01/06 09:39:05;;;;;;;4.40;2.30;;;;;;;;;;5070177;28;20040;-60
2023/01/06 09:41:47;;;;;;;2.53;1.85;;;;;;;;;;5065120;28;20037;-60
2023/01/06 09:44:18;;;;;;;2.45;1.70;;;;;;;;;;5071289;28;20485;-63
2023/01/06 09:46:47;;;;;;;2.42;1.80;;;;;;;;;;5089140;28;20113;-60
2023/01/06 09:49:33;;;;;;;4.82;2.00;;;;;;;;;;5073013;28;20028;-60
2023/01/06 09:52:28;;;;;;;4.80;2.50;;;;;;;;;;5073399;28;20489;-62
2023/01/06 09:55:07;;;;;;;4.70;2.63;;;;;;;;;;5072596;28;20038;-61
2023/01/06 09:57:56;;;;;;;4.63;2.58;;;;;;;;;;5074848;28;20116;-60
2023/01/06 10:00:39;;;;;;;4.38;2.40;;;;;;;;;;5066968;28;20044;-61
2023/01/06 10:03:11;;;;;;;6.53;2.53;;;;;;;;;;5050752;28;20044;-61
2023/01/06 10:05:58;;;;;;;8.85;3.30;;;;;;;;;;5070472;28;20043;-60
2023/01/06 10:08:50;;;;;;;6.43;3.63;;;;;;;;;;5090166;28;20539;-60
2023/01/06 10:11:42;;;;;;;7.18;3.90;;;;;;;;;;5074395;28;20074;-60
2023/01/06 10:14:21;;;;;;;6.43;3.90;;;;;;;;;;5076274;28;20372;-61
2023/01/06 10:16:57;;;;;;;5.63;3.58;;;;;;;;;;5065657;28;20044;-61
2023/01/06 10:19:47;;;;;;;7.75;3.65;;;;;;;;;;5069723;28;20077;-60
2023/01/06 10:22:31;;;;;;;4.27;2.40;;;;;;;;;;5067306;28;20658;-60
2023/01/06 10:25:15;;;;;;;5.28;3.58;;;;;;;;;;5050974;28;20474;-60
2023/01/06 10:27:45;;;;;;;5.95;4.00;;;;;;;;;;5068832;28;20028;-60
2023/01/06 10:30:36;;;;;;;4.18;3.17;;;;;;;;;;5071183;28;20209;-60
2023/01/06 10:33:02;;;;;;;5.60;3.30;;;;;;;;;;5069745;28;20036;-60
2023/01/06 10:35:28;;;;;;;4.43;3.20;;;;;;;;;;5070310;28;20035;-60
2023/01/06 10:37:56;;;;;;;4.68;2.80;;;;;;;;;;5069173;28;20025;-61
2023/01/06 10:40:24;;;;;;;6.35;3.38;;;;;;;;;;5069557;28;20134;-61
2023/01/06 10:42:59;;;;;;;6.78;3.67;;;;;;;;;;5070035;28;20042;-58
2023/01/06 10:45:44;;;;;;;4.35;2.45;;;;;;;;;;5074386;28;20047;-61
2023/01/06 10:48:15;;;;;;;7.05;2.80;;;;;;;;;;5090556;28;20497;-60
2023/01/06 10:50:41;;;;;;;4.93;3.20;;;;;;;;;;5077236;28;20040;-60
2023/01/06 10:53:08;;;;;;;3.20;2.47;;;;;;;;;;5069973;28;20400;-61
2023/01/06 10:55:45;;;;;;;5.22;2.97;;;;;;;;;;5065571;28;20119;-60
2023/01/06 10:58:39;;;;;;;4.40;2.70;;;;;;;;;;5075211;28;20064;-61
2023/01/06 11:01:32;;;;;;;6.20;3.20;;;;;;;;;;5088958;28;20123;-61
2023/01/06 11:04:11;;;;;;;4.03;2.67;;;;;;;;;;5059105;28;20510;-60
2023/01/06 11:06:58;;;;;;;6.07;2.78;;;;;;;;;;5052409;28;20116;-63
2023/01/06 11:09:39;;;;;;;4.30;2.97;;;;;;;;;;5071737;28;20028;-61
2023/01/06 11:12:16;;;;;;;4.75;3.08;;;;;;;;;;5073491;28;20028;-61
2023/01/06 11:14:48;;;;;;;5.45;3.40;;;;;;;;;;5072350;28;20059;-61
2023/01/06 11:17:15;;;;;;;8.77;3.28;;;;;;;;;;5071120;28;20119;-61
2023/01/06 11:19:44;;;;;;;4.03;2.45;;;;;;;;;;5073994;28;20039;-60
2023/01/06 11:22:35;;;;;;;4.85;3.28;;;;;;;;;;5075841;28;20530;-62
2023/01/06 11:25:03;;;;;;;5.57;3.10;;;;;;;;;;5093262;28;20020;-62
2023/01/06 11:27:28;;;;;;;5.38;2.90;;;;;;;;;;5064355;28;20043;-61
2023/01/06 11:29:54;;;;;;;4.97;3.45;;;;;;;;;;5071736;28;20120;-64
2023/01/06 11:32:23;;;;;;;4.60;3.17;;;;;;;;;;5084446;28;20032;-62
2023/01/06 11:34:59;;;;;;;4.07;2.67;;;;;;;;;;5094194;28;20039;-61
2023/01/06 11:37:36;;;;;;;4.03;2.42;;;;;;;;;;5089691;28;20468;-62
2023/01/06 11:40:27;;;;;;;4.18;2.95;;;;;;;;;;5093242;28;20387;-61
2023/01/06 11:42:55;;;;;;;5.97;3.87;;;;;;;;;;5069458;28;20028;-60
2023/01/06 11:45:30;;;;;;;6.20;3.05;;;;;;;;;;5069806;28;20308;-61
2023/01/06 11:47:56;;;;;;;5.47;3.65;;;;;;;;;;5071665;28;20043;-63
2023/01/06 11:50:22;;;;;;;8.07;4.65;;;;;;;;;;5081827;28;20036;-60
2023/01/06 11:53:13;;;;;;;10.38;4.80;;;;;;;;;;5070368;28;20024;-58
2023/01/06 11:55:39;;;;;;;6.00;3.65;;;;;;;;;;5090390;28;20486;-61
2023/01/06 11:58:13;;;;;;;9.73;4.85;;;;;;;;;;5067423;28;20080;-61
2023/01/06 12:00:54;;;;;;;6.25;4.20;;;;;;;;;;5069712;28;20044;-60
2023/01/06 12:03:31;;;;;;;6.78;4.15;;;;;;;;;;5061296;28;20044;-61
2023/01/06 12:06:03;;;;;;;6.72;4.03;;;;;;;;;;5072988;28;20029;-63
2023/01/06 12:08:48;;;;;;;7.63;4.00;;;;;;;;;;5071185;28;20059;-61
2023/01/06 12:11:22;;;;;;;8.10;4.22;;;;;;;;;;5069274;28;20028;-61
2023/01/06 12:13:48;;;;;;;8.15;4.25;;;;;;;;;;5085381;28;20042;-61
2023/01/06 12:16:22;;;;;;;5.70;4.20;;;;;;;;;;5092569;28;20024;-61
2023/01/06 12:18:48;;;;;;;7.35;4.07;;;;;;;;;;5090298;28;20032;-62
2023/01/06 12:21:19;;;;;;;9.45;4.20;;;;;;;;;;5092414;28;20027;-62
2023/01/06 12:23:45;;;;;;;4.60;3.05;;;;;;;;;;5090307;28;20032;-62
2023/01/06 12:26:17;;;;;;;4.75;3.30;;;;;;;;;;5063095;28;20107;-62
2023/01/06 12:28:45;;;;;;;4.65;3.17;;;;;;;;;;5070048;28;20044;-60
2023/01/06 12:31:15;;;;;;;6.80;3.35;;;;;;;;;;5071748;28;20335;-61
2023/01/06 12:33:58;;;;;;;5.20;3.67;;;;;;;;;;5082469;28;20384;-61
2023/01/06 12:36:44;;;;;;;6.07;3.90;;;;;;;;;;5082049;28;20028;-61
2023/01/06 12:39:12;;;;;;;6.13;3.60;;;;;;;;;;5083437;28;20093;-60
2023/01/06 12:41:48;;;;;;;5.70;3.47;;;;;;;;;;5077968;28;20480;-61
2023/01/06 12:44:41;;;;;;;4.97;3.08;;;;;;;;;;5089140;28;20032;-61
2023/01/06 12:47:24;;;;;;;6.95;3.20;;;;;;;;;;5090942;28;20376;-61
2023/01/06 12:50:26;;;;;;;5.78;3.58;;;;;;;;;;5072758;28;20033;-60
2023/01/06 12:53:14;;;;;;;6.80;3.22;;;;;;;;;;5056783;28;20040;-57
2023/01/06 12:55:47;;;;;;;5.60;3.40;;;;;;;;;;5065490;28;20380;-61
2023/01/06 12:58:29;;;;;;;6.88;3.50;;;;;;;;;;5070561;28;20052;-60
2023/01/06 13:01:17;;;;;;;4.85;3.17;;;;;;;;;;5092427;28;20036;-61
2023/01/06 13:03:54;;;;;;;5.20;2.83;;;;;;;;;;5089941;28;20028;-61
2023/01/06 13:06:38;;;;;;;6.15;2.60;;;;;;;;;;5082614;28;20031;-59
2023/01/06 13:09:12;;;;;;;7.22;2.70;;;;;;;;;;5081145;28;20028;-61
2023/01/06 13:12:04;;;;;;;5.13;2.33;;;;;;;;;;5087683;28;20032;-60
2023/01/06 13:14:48;;;;;;;4.05;2.28;;;;;;;;;;5050783;28;20059;-61
2023/01/06 13:17:38;;;;;;;4.35;2.20;;;;;;;;;;5069216;28;20032;-61
2023/01/06 13:20:07;;;;;;;4.00;2.50;;;;;;;;;;5060498;28;20032;-57
2023/01/06 13:23:17;;;;;;;3.17;2.00;;;;;;;;;;5069882;28;20063;-60
2023/01/06 13:26:06;;;;;;;3.45;2.13;;;;;;;;;;5070261;28;20040;-61
2023/01/06 13:28:44;;;;;;;3.47;2.00;;;;;;;;;;5064614;28;20071;-60
2023/01/06 13:31:39;;;;;;;5.85;1.85;;;;;;;;;;5091006;28;20064;-61
2023/01/06 13:34:40;;;;;;;3.10;2.10;;;;;;;;;;5072319;28;20508;-61
2023/01/06 13:37:26;;;;;;;4.15;1.95;;;;;;;;;;5046282;28;20052;-60
2023/01/06 13:39:56;;;;;;;5.32;2.47;;;;;;;;;;5069243;28;20157;-61
2023/01/06 13:42:37;;;;;;;3.00;1.70;;;;;;;;;;5069895;28;20276;-61
2023/01/06 13:45:06;;;;;;;2.67;1.90;;;;;;;;;;5070935;28;20752;-66
2023/01/06 13:47:33;;;;;;;4.82;2.25;;;;;;;;;;5071729;28;20028;-62
2023/01/06 13:50:00;;;;;;;3.70;2.10;;;;;;;;;;5071629;28;20119;-61
2023/01/06 13:52:29;;;;;;;2.55;1.50;;;;;;;;;;5070678;28;20052;-59
2023/01/06 13:55:01;;;;;;;2.03;1.70;;;;;;;;;;5070774;28;20436;-59
2023/01/06 13:57:31;;;;;;;2.33;1.70;;;;;;;;;;5090053;28;20103;-59
2023/01/06 14:00:02;;;;;;;4.53;2.03;;;;;;;;;;5085423;28;20106;-59
2023/01/06 14:02:33;;;;;;;3.22;2.00;;;;;;;;;;5068315;28;20543;-60
2023/01/06 14:05:00;;;;;;;7.32;3.42;;;;;;;;;;5072367;28;20162;-60
2023/01/06 14:07:35;;;;;;;4.88;2.40;;;;;;;;;;5084724;28;20047;-60
2023/01/06 14:10:03;;;;;;;9.27;4.18;;;;;;;;;;5088765;28;20043;-60
2023/01/06 14:12:33;;;;;;;3.45;2.10;;;;;;;;;;5067730;28;20029;-60
2023/01/06 14:15:05;;;;;;;4.55;2.30;;;;;;;;;;5061329;28;20035;-60
2023/01/06 14:17:43;;;;;;;6.22;2.60;;;;;;;;;;5059627;28;20032;-60
2023/01/06 14:20:29;;;;;;;5.50;2.35;;;;;;;;;;5072966;28;20043;-59
2023/01/06 14:23:21;;;;;;;5.22;2.60;;;;;;;;;;5074884;28;20032;-60
2023/01/06 14:25:53;;;;;;;4.65;2.20;;;;;;;;;;5057937;28;20486;-59
2023/01/06 14:28:18;;;;;;;2.92;1.83;;;;;;;;;;5049951;28;20041;-58
2023/01/06 14:30:43;;;;;;;9.57;2.45;;;;;;;;;;5069431;28;20033;-60
2023/01/06 14:33:28;;;;;;;5.75;3.20;;;;;;;;;;5070630;28;20059;-59
2023/01/06 14:36:19;;;;;;;4.22;2.15;;;;;;;;;;5084542;28;20030;-59
2023/01/06 14:38:53;;;;;;;4.20;2.00;;;;;;;;;;5048747;28;20485;-60
2023/01/06 14:41:34;;;;;;;4.07;2.40;;;;;;;;;;5064194;28;20361;-61
2023/01/06 14:44:10;;;;;;;3.30;2.50;;;;;;;;;;5052798;28;20477;-61
2023/01/06 14:46:42;;;;;;;5.40;2.28;;;;;;;;;;5071889;28;20043;-61
2023/01/06 14:49:26;;;;;;;4.05;2.00;;;;;;;;;;5075061;28;20107;-57
2023/01/06 14:51:54;;;;;;;5.18;2.50;;;;;;;;;;5075647;28;20052;-57
2023/01/06 14:54:31;;;;;;;5.07;2.58;;;;;;;;;;5073868;28;20032;-60
2023/01/06 14:56:59;;;;;;;3.67;2.20;;;;;;;;;;5074775;28;20044;-56
2023/01/06 14:59:25;;;;;;;4.38;2.72;;;;;;;;;;5081208;28;20048;-60
2023/01/06 15:01:59;;;;;;;4.32;2.63;;;;;;;;;;5074817;28;20024;-59
2023/01/06 15:04:33;;;;;;;5.40;3.00;;;;;;;;;;5073951;28;20036;-58
2023/01/06 15:07:16;;;;;;;4.28;2.83;;;;;;;;;;5074740;28;20098;-60
2023/01/06 15:09:43;;;;;;;4.72;2.60;;;;;;;;;;5040095;28;20115;-59
2023/01/06 15:12:41;;;;;;;4.78;3.00;;;;;;;;;;5074054;28;20032;-62